Latest Weather Observations for Port Macquarie Airport

IDN60801

Issued at 8:35 pm EST Friday 18 April 2014 (issued every 30 minutes, with the page automatically refreshed every 10 minutes)

About weather observations | Map of weather stations | Latest weather observations for NSW | Other Formats
Station Details ID: 060139 Name: PORT MACQUARIE AIRPORT AWS Lat: -31.43 Lon: 152.87 Height: 4.2 m
Data from the previous 72 hours. | See also: Recent months at Port Macquarie Airport
Date/Time
EST
Temp
°C
App
Temp
°C
Dew
Point
Rel
Hum
%
Delta-T
°C
Wind Press
QNH
hPa
Press
MSL
hPa
Rain
since 9 am
mm
Dir
 
Spd
km/h
Gust
km/h
Spd
kts
Gust
kts
18/08:30pm 13.9 14.6 12.1 89 1.0 WNW 0 0 0 0 1015.0 - 0.0
18/08:00pm 13.8 14.3 11.5 86 1.2 WNW 0 0 0 0 1014.8 - 0.0
18/07:30pm 14.7 15.4 12.2 85 1.4 CALM 0 0 0 0 1014.6 - 0.0
18/07:00pm 15.8 16.8 13.3 85 1.4 CALM 0 0 0 0 1014.3 - 0.0
18/06:30pm 16.7 17.4 13.4 81 1.9 S 2 6 1 3 1014.1 - 0.0
18/06:00pm 17.7 18.5 12.4 71 2.9 S 0 0 0 0 1013.8 1013.8 0.0
18/05:30pm 20.0 20.5 12.7 63 4.1 ESE 2 6 1 3 1013.6 - 0.0
18/05:00pm 21.6 20.5 11.9 54 5.4 E 9 15 5 8 1013.2 - 0.0
18/04:30pm 22.5 21.0 11.9 51 6.0 ESE 11 15 6 8 1012.9 - 0.0
18/04:00pm 23.0 21.4 11.4 48 6.5 ESE 11 17 6 9 1012.8 - 0.0
18/03:30pm 23.6 22.1 12.0 48 6.6 SE 11 17 6 9 1012.7 - 0.0
18/03:00pm 24.0 21.8 12.0 47 6.8 SSE 15 19 8 10 1012.7 1012.7 0.0
18/02:30pm 24.3 22.2 11.3 44 7.3 S 13 17 7 9 1012.9 - 0.0
18/02:00pm 25.2 23.9 9.9 38 8.4 WNW 7 17 4 9 1013.0 - 0.0
18/01:30pm 25.0 23.7 11.2 42 7.8 SW 9 13 5 7 1013.1 - 0.0
18/01:00pm 24.4 22.3 9.6 39 8.1 WSW 11 17 6 9 1013.4 - 0.0
18/12:30pm 24.2 21.1 7.4 34 8.8 W 13 17 7 9 1013.9 - 0.0
18/12:00pm 24.0 21.6 8.8 38 8.2 SSW 11 19 6 10 1014.4 1014.4 0.0
18/11:30am 23.7 21.1 9.3 40 7.8 WSW 13 19 7 10 1015.0 - 0.0
18/11:00am 23.1 20.4 10.5 45 6.9 WSW 15 24 8 13 1015.5 - 0.0
18/10:30am 22.8 22.0 13.0 54 5.6 W 9 17 5 9 1016.1 - 0.0
18/10:00am 21.6 20.5 13.2 59 4.8 W 11 17 6 9 1016.4 - 0.0
18/09:30am 21.0 20.7 13.4 62 4.4 WNW 7 13 4 7 1016.5 - 0.0
18/09:00am 19.6 17.6 12.8 65 3.8 W 15 19 8 10 1016.8 1016.8 0.0
18/08:30am 18.6 17.7 12.6 68 3.3 W 9 15 5 8 1016.8 - 0.0
18/08:00am 17.0 15.1 11.7 71 2.9 W 13 19 7 10 1016.8 - 0.0
18/07:30am 16.1 13.5 12.1 77 2.2 W 17 22 9 12 1016.8 - 0.0
18/07:00am 14.8 13.3 11.8 82 1.6 W 11 17 6 9 1016.7 - 0.0
18/06:30am 14.1 12.5 11.6 85 1.3 W 11 15 6 8 1016.6 - 0.0
18/06:00am 14.3 12.7 11.6 84 1.4 W 11 17 6 9 1016.4 1016.4 0.0
18/05:30am 14.7 12.4 11.7 82 1.6 W 15 20 8 11 1016.3 - 0.0
18/05:00am 14.9 12.2 11.7 81 1.7 W 17 24 9 13 1016.3 - 0.0
18/04:30am 15.0 12.7 11.6 80 1.8 W 15 20 8 11 1016.2 - 0.0
18/04:00am 15.1 13.2 11.7 80 1.8 W 13 22 7 12 1016.1 - 0.0
18/03:30am 15.2 12.9 11.8 80 1.8 W 15 22 8 12 1016.1 - 0.0
18/03:00am 15.2 13.0 12.0 81 1.7 W 15 22 8 12 1016.2 1016.2 0.0
18/02:30am 15.3 12.7 12.1 81 1.7 W 17 20 9 11 1016.4 - 0.0
18/02:00am 15.3 13.1 12.1 81 1.7 W 15 22 8 12 1016.8 - 0.0
18/01:30am 15.4 13.2 12.2 81 1.7 W 15 20 8 11 1017.2 - 0.0
18/01:00am 15.7 13.2 12.3 80 1.9 W 17 20 9 11 1017.3 - 0.0
18/12:30am 16.0 13.6 12.6 80 1.9 W 17 20 9 11 1017.4 - 0.0
18/12:00am 16.0 14.8 12.7 81 1.8 W 11 15 6 8 1017.7 1017.7 0.0
 
Date/Time
EST
Temp
°C
App
Temp
°C
Dew
Point
Rel
Hum
%
Delta-T
°C
Wind Press
QNH
hPa
Press
MSL
hPa
Rain
since 9 am
mm
Dir
 
Spd
km/h
Gust
km/h
Spd
kts
Gust
kts
17/11:30pm 16.2 14.7 13.1 82 1.7 W 13 19 7 10 1017.8 - 0.0
17/11:00pm 16.7 15.2 13.2 80 2.0 W 13 19 7 10 1018.1 - 0.0
17/10:30pm 16.6 15.2 13.3 81 1.8 W 13 15 7 8 1018.3 - 0.0
17/10:00pm 16.3 15.8 13.8 85 1.4 W 9 13 5 7 1018.5 - 0.0
17/09:30pm 16.3 15.8 13.8 85 1.4 W 9 13 5 7 1018.4 - 0.0
17/09:00pm 16.7 16.6 13.8 83 1.6 W 7 11 4 6 1018.3 1018.3 0.0
17/08:30pm 17.6 17.2 14.1 80 2.0 W 9 13 5 7 1018.1 - 0.0
17/08:00pm 18.1 16.7 14.6 80 2.0 SW 15 17 8 9 1017.9 - 0.0
17/07:30pm 18.1 17.5 14.6 80 2.0 WSW 11 13 6 7 1017.7 - 0.0
17/07:00pm 18.9 17.7 15.0 78 2.3 SW 15 24 8 13 1017.5 - 0.0
17/06:30pm 18.8 18.0 15.1 79 2.2 SSW 13 19 7 10 1017.2 - 0.0
17/06:00pm 19.2 17.6 14.9 76 2.5 SSW 17 24 9 13 1017.1 1017.1 0.0
17/05:30pm 19.6 17.4 14.8 74 2.8 SSW 20 28 11 15 1016.8 - 0.0
17/05:00pm 20.1 17.6 15.1 73 2.9 S 22 32 12 17 1016.6 - 0.0
17/04:30pm 20.5 17.4 15.7 74 2.9 S 26 39 14 21 1016.4 - 0.0
17/04:00pm 21.2 18.8 16.4 74 2.9 S 24 35 13 19 1016.2 - 0.0
17/03:30pm 22.4 19.5 15.0 63 4.4 S 24 35 13 19 1016.0 - 0.0
17/03:00pm 23.1 22.0 15.2 61 4.7 SSW 15 28 8 15 1016.1 1016.1 0.0
17/02:30pm 22.1 19.6 14.0 60 4.7 S 20 30 11 16 1016.0 - 0.0
17/02:00pm 22.8 21.3 15.4 63 4.4 S 17 24 9 13 1016.1 - 0.0
17/01:30pm 23.3 20.8 13.5 54 5.7 SW 19 30 10 16 1016.2 - 0.0
17/01:00pm 22.9 20.1 13.1 54 5.6 SW 20 28 11 15 1016.3 - 0.0
17/12:30pm 23.1 19.8 12.7 52 6.0 SW 22 30 12 16 1016.6 - 0.0
17/12:00pm 22.4 19.4 12.1 52 5.8 SW 19 28 10 15 1017.0 1017.0 0.0
17/11:30am 22.5 18.8 11.6 50 6.1 SSW 22 30 12 16 1017.4 - 0.0
17/11:00am 22.6 18.4 12.3 52 5.8 SW 26 35 14 19 1017.9 - 0.0
17/10:30am 22.5 18.2 11.9 51 6.0 SW 26 35 14 19 1017.9 - 0.0
17/10:00am 22.2 18.7 13.3 57 5.1 WSW 24 35 13 19 1018.1 - 0.0
17/09:30am 21.7 18.0 12.8 57 5.1 SW 24 35 13 19 1018.1 - 0.0
17/09:00am 20.6 19.0 13.8 65 3.9 W 15 24 8 13 1018.1 1018.1 0.0
17/08:30am 19.4 18.0 13.3 68 3.5 W 13 17 7 9 1018.3 - 0.0
17/08:00am 18.3 17.3 13.4 73 2.8 W 11 15 6 8 1018.1 - 0.0
17/07:30am 17.7 15.7 12.8 73 2.7 W 15 19 8 10 1017.8 - 0.0
17/07:00am 16.6 14.3 12.9 79 2.1 W 17 20 9 11 1017.5 - 0.0
17/06:30am 15.7 13.7 12.6 82 1.7 W 15 20 8 11 1017.1 - 0.0
17/06:00am 15.6 13.5 12.5 82 1.7 W 15 22 8 12 1016.9 1016.9 0.0
17/05:30am 15.5 13.8 12.6 83 1.6 W 13 17 7 9 1016.7 - 0.0
17/05:00am 15.7 14.0 12.6 82 1.7 WNW 13 17 7 9 1016.5 - 0.0
17/04:30am 16.1 14.5 12.7 80 1.9 W 13 17 7 9 1016.4 - 0.0
17/04:00am 16.4 14.8 12.9 80 1.9 W 13 19 7 10 1016.4 - 0.0
17/03:30am 16.0 14.4 12.9 82 1.7 WNW 13 17 7 9 1016.6 - 0.0
17/03:00am 15.6 13.6 12.7 83 1.6 W 15 20 8 11 1016.5 1016.5 0.0
17/02:30am 15.3 13.7 12.8 85 1.4 WNW 13 17 7 9 1016.4 - 0.0
17/02:00am 15.3 16.2 12.8 85 1.4 CALM 0 0 0 0 1016.7 - 0.0
17/01:30am 16.4 14.9 13.1 81 1.8 W 13 17 7 9 1016.7 - 0.0
17/01:00am 16.3 14.8 13.0 81 1.8 W 13 17 7 9 1017.0 - 0.0
17/12:30am 16.4 14.1 12.9 80 1.9 W 17 20 9 11 1017.2 - 0.0
17/12:00am 16.4 14.5 13.1 81 1.8 W 15 17 8 9 1017.2 1017.2 0.0
 
Date/Time
EST
Temp
°C
App
Temp
°C
Dew
Point
Rel
Hum
%
Delta-T
°C
Wind Press
QNH
hPa
Press
MSL
hPa
Rain
since 9 am
mm
Dir
 
Spd
km/h
Gust
km/h
Spd
kts
Gust
kts
16/11:30pm 16.0 14.9 13.1 83 1.6 W 11 15 6 8 1017.3 - 0.0
16/11:00pm 15.8 15.3 12.7 82 1.7 W 7 11 4 6 1017.3 - 0.0
16/10:30pm 16.4 15.2 12.9 80 1.9 WNW 11 13 6 7 1017.6 - 0.0
16/10:00pm 16.9 15.4 13.2 79 2.1 W 13 19 7 10 1017.7 - 0.0
16/09:30pm 17.1 15.3 13.2 78 2.2 W 15 20 8 11 1017.6 - 0.0
16/09:00pm 17.2 15.7 13.1 77 2.3 W 13 17 7 9 1017.6 1017.6 0.0
16/08:30pm 17.5 16.8 13.2 76 2.4 WSW 9 13 5 7 1017.5 - 0.0
16/08:00pm 17.8 16.0 13.3 75 2.5 W 15 20 8 11 1017.1 - 0.0
16/07:30pm 17.9 15.7 13.2 74 2.6 WSW 17 22 9 12 1016.8 - 0.0
16/07:00pm 18.3 15.8 13.4 73 2.8 WSW 19 26 10 14 1016.7 - 0.0
16/06:30pm 18.2 16.5 13.5 74 2.7 W 15 19 8 10 1016.7 - 0.0
16/06:00pm 18.3 16.5 13.4 73 2.8 WSW 15 20 8 11 1016.4 1016.4 0.0
16/05:30pm 18.7 16.9 13.3 71 3.1 WSW 15 19 8 10 1016.0 - 0.0
16/05:00pm 19.5 17.2 13.0 66 3.7 W 17 26 9 14 1016.0 - 0.0
16/04:30pm 20.8 18.1 13.0 61 4.4 W 19 24 10 13 1015.8 - 0.0
16/04:00pm 20.7 18.3 12.7 60 4.5 WSW 17 24 9 13 1015.6 - 0.0
16/03:30pm 21.7 17.4 12.0 54 5.4 SW 26 41 14 22 1015.4 - 0.0
16/03:00pm 23.4 19.3 12.7 51 6.1 SW 26 41 14 22 1015.2 1015.2 0.0
16/02:30pm 23.4 19.5 13.3 53 5.8 SW 26 41 14 22 1015.3 - 0.0
16/02:00pm 23.6 20.9 14.6 57 5.3 SW 22 32 12 17 1015.4 - 0.0
16/01:30pm 23.1 19.7 13.6 55 5.5 SSW 24 33 13 18 1015.4 - 0.0
16/01:00pm 21.8 18.4 13.7 60 4.7 SSW 24 33 13 18 1015.6 - 0.0
16/12:30pm 23.3 19.4 13.2 53 5.8 SSW 26 41 14 22 1015.8 - 0.0
16/12:00pm 23.4 20.0 13.6 54 5.7 SSW 24 33 13 18 1016.1 1016.1 0.0
16/11:30am 23.1 20.8 14.7 59 5.0 SW 20 35 11 19 1016.4 - 0.0
16/11:00am 22.7 19.8 15.0 61 4.6 SW 24 37 13 20 1016.8 - 0.0
16/10:30am 22.0 19.8 14.9 64 4.2 SW 20 30 11 16 1017.2 - 0.0
16/10:00am 21.2 19.0 14.8 67 3.8 SW 20 30 11 16 1017.5 - 0.0
16/09:30am 20.1 17.2 14.0 68 3.5 WSW 22 26 12 14 1017.5 - 0.0
16/09:00am 19.5 18.0 14.3 72 3.0 WSW 15 20 8 11 1017.5 1017.5 0.0
16/08:30am 20.0 17.6 14.4 70 3.3 SW 20 30 11 16 1017.4 - 0.0
16/08:00am 19.7 17.9 14.5 72 3.0 WSW 17 22 9 12 1017.0 - 0.0
16/07:30am 17.8 15.9 14.1 79 2.1 WSW 17 24 9 13 1016.9 - 0.0
16/07:00am 17.4 15.9 14.3 82 1.8 W 15 20 8 11 1016.7 - 0.0
16/06:30am 17.4 15.1 14.1 81 1.9 WSW 19 28 10 15 1016.8 - 0.0
16/06:00am 17.4 14.5 14.1 81 1.9 WSW 22 30 12 16 1016.4 1016.4 0.0
16/05:30am 17.5 14.9 13.8 79 2.1 WSW 20 30 11 16 1016.4 - 0.0
16/05:00am 17.5 14.5 13.8 79 2.1 WSW 22 28 12 15 1016.1 - 0.0
16/04:30am 17.1 14.6 13.6 80 2.0 WSW 19 24 10 13 1016.0 - 0.0
16/04:00am 16.4 15.7 13.3 82 1.7 WSW 9 13 5 7 1015.9 - 0.0
16/03:30am 17.3 16.0 13.6 79 2.1 WSW 13 19 7 10 1016.1 - 0.0
16/03:00am 17.7 16.4 13.6 77 2.3 WSW 13 20 7 11 1015.8 1015.8 0.0
16/02:30am 17.8 16.1 13.7 77 2.3 WSW 15 20 8 11 1015.7 - 0.0
16/02:00am 17.7 16.4 13.6 77 2.3 WSW 13 17 7 9 1015.9 - 0.0
16/01:30am 17.6 15.9 13.7 78 2.2 W 15 19 8 10 1016.3 - 0.0
16/01:00am 17.6 16.3 13.7 78 2.2 WSW 13 17 7 9 1016.7 - 0.0
16/12:30am 17.4 15.7 13.5 78 2.2 WSW 15 19 8 10 1017.0 - 0.0
16/12:00am 17.2 16.2 13.5 79 2.1 WSW 11 15 6 8 1017.1 1017.1 0.0
 
Date/Time
EST
Temp
°C
App
Temp
°C
Dew
Point
Rel
Hum
%
Delta-T
°C
Wind Press
QNH
hPa
Press
MSL
hPa
Rain
since 9 am
mm
Dir
 
Spd
km/h
Gust
km/h
Spd
kts
Gust
kts
15/11:30pm 17.3 16.3 13.4 78 2.2 WSW 11 15 6 8 1017.2 - 0.0
15/11:00pm 17.4 16.0 13.3 77 2.3 WSW 13 17 7 9 1017.3 - 0.0
15/10:30pm 17.8 15.7 13.5 76 2.4 SW 17 22 9 12 1017.7 - 0.0
15/10:00pm 18.0 15.9 13.5 75 2.5 WSW 17 20 9 11 1017.9 - 0.0
15/09:30pm 18.2 16.9 13.7 75 2.6 WSW 13 17 7 9 1018.1 - 0.0
15/09:00pm 18.3 17.0 13.8 75 2.6 WSW 13 19 7 10 1018.2 1018.2 0.0

Other Formats:

Comma delimited format used in spreadsheet applications
http://www.bom.gov.au/fwo/IDN60801/IDN60801.94786.axf

JavaScript Object Notation format (JSON) in row-major order
http://www.bom.gov.au/fwo/IDN60801/IDN60801.94786.json